createdAt,value
2023-04-27T00:01:15.876Z,72.80
2023-04-27T00:03:43.668Z,73.02
2023-04-27T00:06:11.916Z,73.22
2023-04-27T00:08:39.736Z,73.38
2023-04-27T00:11:07.394Z,73.66
2023-04-27T00:13:35.064Z,73.98
2023-04-27T00:16:04.003Z,74.31
2023-04-27T00:18:32.710Z,74.62
2023-04-27T00:21:00.498Z,74.89
2023-04-27T00:23:28.456Z,75.04
2023-04-27T00:25:56.248Z,75.18
2023-04-27T00:28:23.922Z,75.40
2023-04-27T00:30:54.420Z,75.67
2023-04-27T00:33:22.186Z,75.87
2023-04-27T00:35:49.893Z,75.93
2023-04-27T00:38:17.639Z,75.93
2023-04-27T00:40:45.425Z,76.09
2023-04-27T00:43:13.158Z,76.24
2023-04-27T00:45:45.891Z,76.21
2023-04-27T00:48:13.576Z,76.21
2023-04-27T00:50:41.609Z,76.24
2023-04-27T00:53:09.457Z,76.32
2023-04-27T00:55:37.130Z,76.46
2023-04-27T00:58:11.270Z,76.57
2023-04-27T01:00:40.319Z,76.63
2023-04-27T01:03:08.801Z,76.57
2023-04-27T01:05:37.638Z,76.59
2023-04-27T01:08:05.568Z,76.66
2023-04-27T01:10:33.298Z,76.72
2023-04-27T01:13:01.309Z,76.88
2023-04-27T01:15:29.123Z,77.05
2023-04-27T01:18:01.939Z,77.27
2023-04-27T01:20:33.180Z,77.44
2023-04-27T01:23:00.927Z,77.63
2023-04-27T01:25:28.736Z,77.86
2023-04-27T01:27:56.525Z,78.03
2023-04-27T01:30:24.111Z,78.23
2023-04-27T01:32:51.886Z,78.46
2023-04-27T01:35:19.728Z,78.67
2023-04-27T01:37:47.437Z,78.90
2023-04-27T01:40:15.516Z,79.11
2023-04-27T01:42:43.424Z,79.31
2023-04-27T01:45:11.773Z,79.67
2023-04-27T01:47:39.827Z,79.96
2023-04-27T01:50:07.784Z,80.16
2023-04-27T01:56:54.552Z,80.60
2023-04-27T01:59:22.302Z,80.74
2023-04-27T02:01:50.016Z,80.92
2023-04-27T02:04:18.050Z,81.10
2023-04-27T02:06:45.802Z,81.31
2023-04-27T02:09:14.220Z,81.48
2023-04-27T02:11:42.111Z,81.67
2023-04-27T02:18:12.116Z,81.97
2023-04-27T02:20:40.142Z,82.00
2023-04-27T02:23:08.023Z,82.10
2023-04-27T02:25:39.104Z,82.23
2023-04-27T02:28:06.775Z,82.39
2023-04-27T02:30:35.140Z,82.51
2023-04-27T02:33:02.857Z,82.61
2023-04-27T02:35:32.616Z,82.66
2023-04-27T02:38:34.861Z,82.75
2023-04-27T02:41:02.628Z,82.86
2023-04-27T02:43:31.880Z,82.92
2023-04-27T02:46:03.813Z,83.04
2023-04-27T02:48:31.759Z,83.05
2023-04-27T02:50:59.405Z,83.10
2023-04-27T02:53:27.242Z,83.17
2023-04-27T02:55:54.940Z,83.22
2023-04-27T02:58:22.729Z,83.28
2023-04-27T03:00:57.373Z,83.33
2023-04-27T03:03:25.364Z,83.31
2023-04-27T03:05:54.452Z,83.34
2023-04-27T03:08:22.087Z,83.41
2023-04-27T03:10:49.802Z,83.47
2023-04-27T03:13:17.457Z,83.52
2023-04-27T03:15:45.210Z,83.55
2023-04-27T03:18:12.814Z,83.57
2023-04-27T03:20:41.227Z,83.57
2023-04-27T03:23:08.925Z,83.70
2023-04-27T03:25:36.641Z,83.86
2023-04-27T03:28:04.603Z,83.95
2023-04-27T03:30:32.458Z,84.06
2023-04-27T03:33:00.240Z,84.17
2023-04-27T03:35:28.096Z,84.39
2023-04-27T03:37:55.971Z,84.48
2023-04-27T03:40:23.750Z,84.46
2023-04-27T03:42:51.598Z,84.45
2023-04-27T03:45:22.452Z,84.55
2023-04-27T03:47:50.674Z,84.63
2023-04-27T03:51:15.273Z,84.77
2023-04-27T03:53:43.016Z,84.81
2023-04-27T03:56:10.772Z,84.70
2023-04-27T03:58:40.906Z,84.73
2023-04-27T04:01:10.462Z,84.79
2023-04-27T04:03:38.251Z,84.69
2023-04-27T04:06:08.963Z,84.68
2023-04-27T04:08:37.405Z,84.82
2023-04-27T04:11:05.438Z,84.92
2023-04-27T04:13:33.115Z,84.97
2023-04-27T04:16:05.721Z,84.94
2023-04-27T04:18:34.345Z,84.89
2023-04-27T04:21:03.014Z,84.93
2023-04-27T04:23:30.842Z,84.98
2023-04-27T04:25:59.138Z,85.04
2023-04-27T04:28:27.568Z,84.98
2023-04-27T04:30:56.089Z,84.80
2023-04-27T04:33:24.303Z,84.79
2023-04-27T04:35:52.038Z,84.72
2023-04-27T04:38:19.848Z,84.52
2023-04-27T04:40:47.637Z,84.47
2023-04-27T04:43:15.373Z,84.15
2023-04-27T04:45:43.707Z,82.63
2023-04-27T04:48:11.584Z,82.22
2023-04-27T04:50:39.414Z,80.38
2023-04-27T04:53:07.512Z,79.64
2023-04-27T04:55:35.136Z,79.66
2023-04-27T04:58:03.306Z,77.55
2023-04-27T05:00:31.106Z,77.24
2023-04-27T05:02:58.926Z,76.51
2023-04-27T05:05:26.825Z,76.71
2023-04-27T05:07:54.494Z,75.18
2023-04-27T05:10:22.215Z,74.21
2023-04-27T05:12:49.846Z,72.87
2023-04-27T05:15:18.153Z,72.53
2023-04-27T05:17:46.397Z,71.75
2023-04-27T05:20:14.233Z,70.47
2023-04-27T05:22:42.137Z,68.89
2023-04-27T05:25:10.063Z,69.67
2023-04-27T05:27:37.887Z,69.19
2023-04-27T05:30:06.209Z,65.49
2023-04-27T05:32:36.228Z,63.42
2023-04-27T05:35:05.576Z,61.56
2023-04-27T05:37:33.646Z,55.34
2023-04-27T05:40:01.705Z,54.49
2023-04-27T05:42:29.488Z,53.25
2023-04-27T05:44:57.235Z,50.52
2023-04-27T05:47:25.038Z,46.05
2023-04-27T05:49:53.267Z,46.51
2023-04-27T05:52:22.037Z,46.50
2023-04-27T05:54:50.966Z,44.98
2023-04-27T05:57:18.707Z,45.94
2023-04-27T06:00:36.870Z,45.56
2023-04-27T06:03:04.751Z,45.98
2023-04-27T06:05:34.335Z,45.92
2023-04-27T06:08:02.067Z,44.83
2023-04-27T06:10:29.908Z,46.15
2023-04-27T06:12:57.617Z,46.73
2023-04-27T06:15:26.020Z,47.49
2023-04-27T06:17:53.750Z,47.43
2023-04-27T06:20:21.643Z,45.92
2023-04-27T06:22:49.404Z,45.72
2023-04-27T06:25:18.652Z,46.77
2023-04-27T06:27:46.487Z,46.60
2023-04-27T06:30:14.332Z,45.80
2023-04-27T06:32:42.160Z,46.66
2023-04-27T06:35:10.905Z,47.67
2023-04-27T06:37:39.108Z,47.23
2023-04-27T06:40:08.272Z,45.86
2023-04-27T06:42:36.512Z,43.39
2023-04-27T06:45:05.619Z,42.15
2023-04-27T06:47:33.482Z,42.18
2023-04-27T06:50:01.116Z,41.71
2023-04-27T06:52:54.250Z,41.69
2023-04-27T06:55:22.026Z,40.61
2023-04-27T06:57:49.757Z,39.86
2023-04-27T07:00:17.833Z,39.15
2023-04-27T07:02:45.565Z,38.93
2023-04-27T07:05:13.311Z,37.23
2023-04-27T07:07:41.005Z,39.09
2023-04-27T07:10:09.286Z,38.63
2023-04-27T07:12:38.039Z,38.88
2023-04-27T07:15:06.663Z,36.72
2023-04-27T07:17:34.313Z,38.13
2023-04-27T07:20:04.104Z,40.66
2023-04-27T07:22:38.422Z,41.69
2023-04-27T07:25:06.900Z,41.08
2023-04-27T07:27:35.793Z,41.72
2023-04-27T07:30:04.188Z,41.82
2023-04-27T07:32:32.234Z,41.58
2023-04-27T07:35:00.069Z,40.66
2023-04-27T07:37:28.878Z,39.63
2023-04-27T07:39:56.645Z,38.41
2023-04-27T07:42:25.210Z,37.72
2023-04-27T07:44:54.507Z,36.58
2023-04-27T07:47:22.273Z,36.11
2023-04-27T07:49:50.207Z,37.72
2023-04-27T07:52:17.973Z,37.09
2023-04-27T07:54:45.571Z,37.63
2023-04-27T07:57:13.236Z,38.00
2023-04-27T07:59:40.991Z,39.07
2023-04-27T08:02:19.140Z,37.41
2023-04-27T08:04:49.972Z,37.19
2023-04-27T08:07:18.475Z,37.97
2023-04-27T08:09:47.168Z,37.24
2023-04-27T08:12:15.035Z,37.41
2023-04-27T08:14:42.757Z,37.43
2023-04-27T08:17:11.384Z,37.08
2023-04-27T08:19:39.149Z,38.62
2023-04-27T08:22:08.585Z,38.80
2023-04-27T08:24:37.478Z,38.11
2023-04-27T08:27:08.645Z,37.03
2023-04-27T08:30:03.279Z,37.23
2023-04-27T08:32:31.426Z,38.47
2023-04-27T08:35:14.794Z,38.12
2023-04-27T08:37:42.554Z,37.68
2023-04-27T08:40:10.914Z,37.90
2023-04-27T08:42:42.037Z,38.56
2023-04-27T08:45:10.012Z,39.25
2023-04-27T08:47:48.624Z,40.69
2023-04-27T08:50:17.024Z,43.03
2023-04-27T08:52:52.572Z,44.41
2023-04-27T08:55:20.476Z,45.41
2023-04-27T08:57:58.452Z,46.40
2023-04-27T09:00:27.077Z,46.87
2023-04-27T09:02:55.038Z,47.77
2023-04-27T09:05:23.811Z,48.63
2023-04-27T09:08:08.074Z,48.76
2023-04-27T09:10:49.296Z,48.90
2023-04-27T09:13:17.392Z,49.82
2023-04-27T09:15:50.699Z,50.47
2023-04-27T09:18:21.320Z,49.66
2023-04-27T09:20:52.982Z,50.46
2023-04-27T09:36:23.326Z,56.01
2023-04-27T09:38:52.454Z,56.67
2023-04-27T09:41:20.647Z,57.25
2023-04-27T09:43:50.819Z,56.08
2023-04-27T09:46:19.785Z,55.84
2023-04-27T09:48:51.044Z,54.74
2023-04-27T09:51:23.167Z,54.78
2023-04-27T09:53:58.686Z,55.23
2023-04-27T09:56:41.768Z,54.40
2023-04-27T09:59:24.647Z,54.29
2023-04-27T10:01:56.797Z,54.11
2023-04-27T10:04:30.683Z,54.21
2023-04-27T10:07:08.520Z,52.92
2023-04-27T10:09:40.668Z,52.01
2023-04-27T10:12:41.999Z,52.13
2023-04-27T10:15:17.860Z,50.24
2023-04-27T10:17:50.442Z,51.08
2023-04-27T10:20:32.606Z,52.32
2023-04-27T10:23:00.931Z,49.81
2023-04-27T10:25:37.079Z,49.62
2023-04-27T10:28:05.110Z,50.94
2023-04-27T10:30:43.968Z,50.81
2023-04-27T10:33:15.961Z,48.61
2023-04-27T10:35:54.325Z,48.63
2023-04-27T10:38:30.921Z,48.12
2023-04-27T10:41:07.515Z,46.01
2023-04-27T10:44:38.258Z,45.46
2023-04-27T10:47:22.146Z,46.73
2023-04-27T10:49:54.399Z,47.20
2023-04-27T10:52:22.100Z,47.23
2023-04-27T10:54:49.804Z,47.50
2023-04-27T10:57:18.077Z,47.30
2023-04-27T10:59:54.682Z,47.28
2023-04-27T11:02:27.991Z,46.84
2023-04-27T11:04:56.739Z,46.74
2023-04-27T11:07:29.075Z,46.05
2023-04-27T11:09:57.130Z,45.83
2023-04-27T11:12:28.380Z,46.07
2023-04-27T11:14:59.555Z,46.40
2023-04-27T11:17:31.098Z,46.38
2023-04-27T11:19:58.929Z,46.86
2023-04-27T11:22:51.314Z,48.27
2023-04-27T11:25:27.820Z,50.43
2023-04-27T11:27:56.033Z,51.73
2023-04-27T11:30:24.341Z,52.48
2023-04-27T11:32:53.831Z,48.88
2023-04-27T11:35:32.666Z,48.71
2023-04-27T11:38:00.473Z,46.99
2023-04-27T11:40:29.507Z,45.13
2023-04-27T11:42:59.635Z,44.40
2023-04-27T11:45:30.150Z,43.66
2023-04-27T11:48:01.028Z,43.34
2023-04-27T11:50:28.865Z,43.11
2023-04-27T11:53:01.232Z,43.35
2023-04-27T11:55:29.517Z,43.01
2023-04-27T11:57:59.394Z,42.93
2023-04-27T12:00:27.206Z,42.76
2023-04-27T12:02:55.213Z,42.93
2023-04-27T12:05:23.329Z,43.36
2023-04-27T12:07:52.357Z,42.73
2023-04-27T12:10:20.170Z,42.25
2023-04-27T12:12:47.911Z,42.54
2023-04-27T12:15:15.601Z,42.39
2023-04-27T12:17:43.292Z,41.28
2023-04-27T12:20:12.016Z,41.03
2023-04-27T12:22:40.810Z,40.54
2023-04-27T12:25:08.601Z,40.39
2023-04-27T12:27:36.326Z,40.19
2023-04-27T12:30:04.949Z,37.62
2023-04-27T12:32:32.628Z,37.52
2023-04-27T12:35:00.318Z,38.28
2023-04-27T12:37:27.974Z,38.61
2023-04-27T12:39:55.727Z,38.45
2023-04-27T12:42:24.433Z,39.42
2023-04-27T12:44:52.952Z,40.06
2023-04-27T12:47:45.980Z,39.20
2023-04-27T12:50:10.173Z,39.77
2023-04-27T12:57:06.353Z,41.01
2023-04-27T12:59:34.410Z,41.34
2023-04-27T13:02:02.895Z,39.18
2023-04-27T13:04:31.673Z,35.05
2023-04-27T13:07:03.293Z,32.27
2023-04-27T13:09:31.098Z,33.08
2023-04-27T13:12:01.401Z,32.65
2023-04-27T13:14:30.417Z,33.36
2023-04-27T13:16:58.146Z,34.09
2023-04-27T13:19:26.774Z,34.91
2023-04-27T13:21:54.512Z,35.26
2023-04-27T13:24:22.806Z,35.33
2023-04-27T13:26:50.535Z,34.69
2023-04-27T13:29:18.176Z,35.20
2023-04-27T13:31:46.191Z,35.67
2023-04-27T13:34:18.855Z,36.12
2023-04-27T13:36:48.896Z,37.92
2023-04-27T13:39:17.297Z,38.24
2023-04-27T13:42:36.284Z,38.32
2023-04-27T13:45:04.930Z,38.74
2023-04-27T13:47:37.021Z,40.80
2023-04-27T13:50:10.742Z,40.63
2023-04-27T13:52:39.578Z,40.74
2023-04-27T13:55:09.465Z,40.98
2023-04-27T13:57:37.991Z,42.66
2023-04-27T14:00:11.488Z,43.26
2023-04-27T14:03:05.730Z,42.35
2023-04-27T14:05:33.726Z,41.25
2023-04-27T14:08:01.489Z,41.39
2023-04-27T14:10:29.584Z,41.50
2023-04-27T14:12:57.510Z,41.35
2023-04-27T14:15:25.362Z,40.98
2023-04-27T14:17:53.147Z,42.09
2023-04-27T14:20:21.221Z,42.88
2023-04-27T14:23:40.454Z,42.40
2023-04-27T14:26:09.184Z,40.49
2023-04-27T14:28:36.940Z,41.32
2023-04-27T14:31:04.649Z,39.98
2023-04-27T14:33:32.597Z,41.30
2023-04-27T14:36:00.811Z,41.41
2023-04-27T14:38:28.556Z,41.43
2023-04-27T14:40:56.387Z,40.79
2023-04-27T14:43:24.090Z,40.33
2023-04-27T14:45:57.137Z,39.73
2023-04-27T14:48:29.899Z,40.25
2023-04-27T14:52:02.539Z,40.86
2023-04-27T14:54:30.453Z,39.56
2023-04-27T14:56:58.956Z,38.92
2023-04-27T14:59:26.867Z,40.43
2023-04-27T15:01:54.764Z,40.09
2023-04-27T15:04:22.905Z,38.83
2023-04-27T15:06:51.019Z,38.60
2023-04-27T15:09:18.976Z,39.62
2023-04-27T15:11:47.097Z,40.23
2023-04-27T15:14:14.888Z,40.02
2023-04-27T15:16:42.768Z,40.26
2023-04-27T15:19:10.533Z,40.36
2023-04-27T15:22:35.433Z,40.57
2023-04-27T15:25:03.406Z,41.43
2023-04-27T15:27:31.195Z,42.06
2023-04-27T15:30:07.489Z,42.07
2023-04-27T15:32:35.180Z,43.21
2023-04-27T15:35:04.411Z,43.31
2023-04-27T15:37:35.860Z,43.12
2023-04-27T15:40:04.368Z,43.47
2023-04-27T15:42:32.194Z,43.51
2023-04-27T15:45:00.755Z,43.76
2023-04-27T15:47:28.424Z,44.32
2023-04-27T15:49:57.765Z,44.63
2023-04-27T15:52:27.202Z,45.61
2023-04-27T15:54:55.445Z,45.89
2023-04-27T15:57:23.090Z,45.13
2023-04-27T15:59:50.766Z,45.58
2023-04-27T16:02:18.682Z,45.63
2023-04-27T16:04:46.648Z,44.74
2023-04-27T16:07:14.523Z,44.25
2023-04-27T16:09:42.395Z,44.60
2023-04-27T16:12:10.258Z,43.74
2023-04-27T16:14:38.365Z,43.74
2023-04-27T16:17:06.862Z,43.99
2023-04-27T16:19:35.907Z,43.18
2023-04-27T16:22:04.310Z,43.62
2023-04-27T16:24:32.472Z,43.82
2023-04-27T16:27:00.189Z,43.91
2023-04-27T16:33:29.582Z,44.65
2023-04-27T16:40:10.942Z,44.98
2023-04-27T16:42:38.716Z,44.79
2023-04-27T16:45:08.540Z,45.13
2023-04-27T16:47:38.084Z,45.49
2023-04-27T16:50:06.465Z,45.68
2023-04-27T16:52:36.508Z,45.67
2023-04-27T16:55:04.677Z,45.82
2023-04-27T16:57:32.854Z,45.80
2023-04-27T17:00:01.814Z,45.64
2023-04-27T17:02:29.998Z,45.93
2023-04-27T17:04:59.507Z,46.37
2023-04-27T17:07:33.061Z,46.35
2023-04-27T17:10:01.179Z,46.38
2023-04-27T17:12:28.907Z,46.44
2023-04-27T17:14:56.799Z,46.75
2023-04-27T17:17:24.619Z,47.08
2023-04-27T17:19:52.371Z,46.98
2023-04-27T17:22:20.457Z,47.17
2023-04-27T17:24:48.169Z,48.54
2023-04-27T17:27:16.265Z,49.95
2023-04-27T17:29:43.915Z,49.04
2023-04-27T17:32:11.698Z,48.14
2023-04-27T17:34:41.052Z,48.81
2023-04-27T17:37:11.098Z,53.40
2023-04-27T17:39:38.767Z,54.37
2023-04-27T17:42:12.262Z,56.69
2023-04-27T17:44:42.100Z,58.04
2023-04-27T17:47:09.888Z,57.95
2023-04-27T17:49:38.030Z,58.51
2023-04-27T17:52:05.923Z,58.62
2023-04-27T17:54:33.696Z,58.93
2023-04-27T17:57:02.058Z,59.12
2023-04-27T17:59:29.910Z,59.64
2023-04-27T18:01:57.836Z,60.86
2023-04-27T18:04:26.929Z,60.60
2023-04-27T18:06:54.682Z,60.38
2023-04-27T18:09:23.632Z,60.32
2023-04-27T18:11:51.424Z,60.67
2023-04-27T18:14:19.178Z,61.00
2023-04-27T18:16:47.093Z,60.96
2023-04-27T18:19:15.098Z,61.55
2023-04-27T18:26:00.140Z,62.57
2023-04-27T18:28:28.099Z,63.24
2023-04-27T18:30:56.029Z,63.82
2023-04-27T18:33:50.846Z,64.17
2023-04-27T18:36:19.823Z,64.43
2023-04-27T18:38:51.006Z,64.90
2023-04-27T18:45:31.563Z,65.88
2023-04-27T18:47:59.387Z,65.48
2023-04-27T18:50:27.199Z,64.29
2023-04-27T18:52:54.927Z,63.81
2023-04-27T18:55:22.764Z,63.38
2023-04-27T18:57:50.650Z,63.71
2023-04-27T19:03:10.993Z,63.19
2023-04-27T19:05:42.871Z,63.01
2023-04-27T19:08:11.603Z,62.63
2023-04-27T19:10:41.591Z,62.29
2023-04-27T19:13:09.547Z,62.25
2023-04-27T19:15:37.606Z,62.37
2023-04-27T19:18:10.623Z,62.40
2023-04-27T19:20:39.792Z,61.82
2023-04-27T19:23:09.772Z,61.74
2023-04-27T19:25:37.996Z,62.26
2023-04-27T19:30:34.067Z,63.27
2023-04-27T19:33:04.991Z,63.36
2023-04-27T19:35:32.731Z,64.58
2023-04-27T19:38:00.976Z,65.18
2023-04-27T19:40:28.712Z,65.27
2023-04-27T19:42:57.100Z,64.60
2023-04-27T19:45:24.939Z,65.58
2023-04-27T19:47:54.239Z,65.38
2023-04-27T19:50:22.455Z,66.15
2023-04-27T19:52:50.166Z,66.90
2023-04-27T19:55:18.133Z,67.31
2023-04-27T19:57:46.106Z,67.86
2023-04-27T20:00:14.229Z,68.13
2023-04-27T20:02:42.485Z,68.44
2023-04-27T20:05:10.773Z,68.55
2023-04-27T20:07:39.145Z,68.33
2023-04-27T20:10:07.341Z,68.75
2023-04-27T20:15:42.521Z,69.64
2023-04-27T20:19:28.419Z,69.79
2023-04-27T20:21:59.550Z,70.20
2023-04-27T20:24:28.502Z,70.74
2023-04-27T20:26:55.086Z,71.33
2023-04-27T20:29:21.629Z,71.85
2023-04-27T20:31:48.299Z,72.30
2023-04-27T20:34:15.268Z,72.72
2023-04-27T20:36:43.683Z,73.01
2023-04-27T20:39:11.357Z,73.17
2023-04-27T20:41:41.130Z,73.40
2023-04-27T20:44:08.876Z,73.59
2023-04-27T20:46:35.981Z,73.82
2023-04-27T20:49:05.258Z,74.04
2023-04-27T20:55:40.328Z,74.45
2023-04-27T20:58:07.118Z,74.53
2023-04-27T21:00:33.555Z,74.78
2023-04-27T21:03:00.388Z,75.06
2023-04-27T21:05:26.782Z,75.39
2023-04-27T21:07:53.429Z,75.67
2023-04-27T21:10:19.702Z,75.92
2023-04-27T21:12:46.012Z,76.10
2023-04-27T21:15:12.393Z,76.38
2023-04-27T21:17:38.871Z,76.54
2023-04-27T21:24:25.678Z,77.10
2023-04-27T21:26:52.198Z,77.15
2023-04-27T21:29:21.048Z,77.40
2023-04-27T21:31:47.321Z,77.55
2023-04-27T21:34:14.029Z,77.74
2023-04-27T21:36:40.524Z,78.00
2023-04-27T21:39:06.877Z,78.24
2023-04-27T21:41:38.540Z,78.39
2023-04-27T21:44:04.989Z,78.68
2023-04-27T21:46:31.331Z,78.82
2023-04-27T21:48:57.689Z,78.88
2023-04-27T21:51:23.981Z,78.95
2023-04-27T21:53:50.343Z,79.04
2023-04-27T21:56:16.636Z,79.12
2023-04-27T21:58:43.893Z,79.14
2023-04-27T22:01:11.970Z,79.14
2023-04-27T22:03:38.548Z,79.23
2023-04-27T22:06:05.590Z,79.32
2023-04-27T22:12:32.931Z,79.17
2023-04-27T22:14:59.365Z,79.14
2023-04-27T22:17:25.985Z,79.25
2023-04-27T22:19:55.030Z,79.40
2023-04-27T22:22:21.353Z,79.47
2023-04-27T22:24:47.974Z,79.52
2023-04-27T22:27:14.318Z,79.62
2023-04-27T22:29:40.703Z,79.76
2023-04-27T22:32:07.059Z,79.81
2023-04-27T22:34:33.555Z,79.78
2023-04-27T22:37:00.030Z,79.86
2023-04-27T22:39:26.357Z,79.99
2023-04-27T22:41:52.614Z,80.15
2023-04-27T22:45:22.396Z,80.22
2023-04-27T22:47:48.828Z,80.34
2023-04-27T22:50:15.724Z,80.33
2023-04-27T22:52:42.575Z,80.50
2023-04-27T22:55:12.134Z,80.65
2023-04-27T22:57:39.411Z,80.76
2023-04-27T23:04:10.483Z,81.00
2023-04-27T23:06:37.612Z,81.15
2023-04-27T23:09:04.880Z,81.27
2023-04-27T23:11:31.245Z,81.28
2023-04-27T23:13:57.604Z,81.28
2023-04-27T23:16:25.089Z,81.32
2023-04-27T23:18:52.186Z,81.43
2023-04-27T23:21:18.459Z,81.51
2023-04-27T23:23:45.963Z,81.52
2023-04-27T23:26:15.790Z,81.52
2023-04-27T23:28:42.651Z,81.46
2023-04-27T23:31:09.613Z,81.32
2023-04-27T23:33:36.212Z,81.31
2023-04-27T23:40:06.157Z,81.06
2023-04-27T23:42:32.623Z,80.88
2023-04-27T23:49:19.699Z,80.95
2023-04-27T23:51:46.394Z,80.92
2023-04-27T23:54:12.627Z,81.03
